Search METAR Data

METAR Data for MYEM:

MYEM 241400Z AUTO 06008KT 030V090 9999 FEW039 25/16 Q1020 A3013